Time,TemperatureF,DewpointF,PressureIn,WindDirection,WindDirectionDegrees,WindSpeedMPH,WindSpeedGustMPH,Humidity,HourlyPrecipIn,Conditions,Clouds,dailyrainin,SolarRadiationWatts/m^2,SoftwareType,DateUTC
2013-04-13 00:23:00,43.0,21.0,-100.00,SW,234,4.0,6.0,41,-99.99,,,0.02,0.000000,,2013-04-13 06:23:00,
2013-04-13 00:34:00,43.0,21.0,-100.00,SW,234,4.0,6.0,41,-99.99,,,0.02,0.000000,,2013-04-13 06:34:00,
2013-04-13 00:51:00,39.0,22.0,-100.00,NW,307,3.0,8.0,50,-99.99,,,0.02,0.000000,,2013-04-13 06:51:00,
2013-04-13 01:14:00,39.0,22.0,-100.00,NW,307,3.0,8.0,50,-99.99,,,0.02,0.000000,,2013-04-13 07:14:00,
2013-04-13 01:23:00,39.0,22.0,-100.00,NW,307,3.0,8.0,50,-99.99,,,0.02,0.000000,,2013-04-13 07:23:00,
2013-04-13 01:33:00,39.0,22.0,-100.00,NW,307,3.0,8.0,50,-99.99,,,0.02,0.000000,,2013-04-13 07:33:00,
2013-04-13 01:43:00,39.0,22.0,-100.00,NW,307,3.0,8.0,50,-99.99,,,0.02,0.000000,,2013-04-13 07:43:00,
2013-04-13 01:51:00,38.0,22.0,-100.00,WNW,294,5.0,9.0,52,0.00,,,0.02,0.000000,,2013-04-13 07:51:00,
2013-04-13 02:14:00,38.0,22.0,-100.00,WNW,294,5.0,9.0,52,0.00,,,0.02,0.000000,,2013-04-13 08:14:00,
2013-04-13 02:24:00,38.0,22.0,-100.00,WNW,294,5.0,9.0,52,0.00,,,0.02,0.000000,,2013-04-13 08:24:00,
2013-04-13 02:33:00,38.0,22.0,-100.00,WNW,294,5.0,9.0,52,0.00,,,0.02,0.000000,,2013-04-13 08:33:00,
2013-04-13 02:44:00,38.0,22.0,-100.00,WNW,294,5.0,9.0,52,0.00,,,0.02,0.000000,,2013-04-13 08:44:00,
2013-04-13 02:51:00,37.0,21.0,-100.00,WNW,293,3.0,7.0,52,0.00,,,0.02,0.000000,,2013-04-13 08:51:00,
2013-04-13 03:14:00,37.0,21.0,-100.00,WNW,293,3.0,7.0,52,0.00,,,0.02,0.000000,,2013-04-13 09:14:00,
2013-04-13 03:23:00,37.0,21.0,-100.00,WNW,293,3.0,7.0,52,0.00,,,0.02,0.000000,,2013-04-13 09:23:00,
2013-04-13 03:34:00,37.0,21.0,-100.00,WNW,293,3.0,7.0,52,0.00,,,0.02,0.000000,,2013-04-13 09:34:00,
2013-04-13 03:45:00,37.0,21.0,-100.00,WNW,293,3.0,7.0,52,0.00,,,0.02,0.000000,,2013-04-13 09:45:00,
2013-04-13 03:51:00,35.0,21.0,-100.00,WSW,255,4.0,7.0,57,0.00,,,0.01,0.000000,,2013-04-13 09:51:00,
2013-04-13 04:15:00,35.0,21.0,-100.00,WSW,255,4.0,7.0,57,0.00,,,0.01,0.000000,,2013-04-13 10:15:00,
2013-04-13 04:23:00,35.0,21.0,-100.00,WSW,255,4.0,7.0,57,0.00,,,0.01,0.000000,,2013-04-13 10:23:00,
2013-04-13 04:35:00,35.0,21.0,-100.00,WSW,255,4.0,7.0,57,0.00,,,0.01,0.000000,,2013-04-13 10:35:00,
2013-04-13 04:44:00,35.0,21.0,-100.00,WSW,255,4.0,7.0,57,0.00,,,0.01,0.000000,,2013-04-13 10:44:00,
2013-04-13 04:51:00,35.0,21.0,-100.00,WSW,257,1.0,6.0,57,0.00,,,0.01,0.000000,,2013-04-13 10:51:00,
2013-04-13 05:13:00,35.0,21.0,-100.00,WSW,257,1.0,6.0,57,0.00,,,0.01,0.000000,,2013-04-13 11:13:00,
2013-04-13 05:23:00,35.0,21.0,-100.00,WSW,257,1.0,6.0,57,0.00,,,0.01,0.000000,,2013-04-13 11:23:00,
2013-04-13 05:33:00,35.0,21.0,-100.00,WSW,257,1.0,6.0,57,0.00,,,0.01,0.000000,,2013-04-13 11:33:00,
2013-04-13 05:43:00,35.0,21.0,-100.00,WSW,257,1.0,6.0,57,0.00,,,0.01,0.000000,,2013-04-13 11:43:00,
2013-04-13 05:51:00,33.0,22.0,-100.00,West,281,3.0,5.0,64,0.00,,,0.00,0.000000,,2013-04-13 11:51:00,
2013-04-13 06:23:00,33.0,22.0,-100.00,West,281,3.0,5.0,64,0.00,,,0.00,0.000000,,2013-04-13 12:23:00,
2013-04-13 06:34:00,33.0,22.0,-100.00,West,281,3.0,5.0,64,0.00,,,0.00,0.000000,,2013-04-13 12:34:00,
2013-04-13 06:45:00,33.0,22.0,-100.00,West,281,3.0,5.0,64,0.00,,,0.00,0.000000,,2013-04-13 12:45:00,
2013-04-13 06:51:00,34.0,22.0,-100.00,NNW,337,2.0,7.0,62,0.00,,,0.00,2.000000,,2013-04-13 12:51:00,
2013-04-13 07:24:00,34.0,22.0,-100.00,NNW,337,2.0,7.0,62,0.00,,,0.00,2.000000,,2013-04-13 13:24:00,
2013-04-13 07:33:00,34.0,22.0,-100.00,NNW,337,2.0,7.0,62,0.00,,,0.00,2.000000,,2013-04-13 13:33:00,
2013-04-13 07:45:00,34.0,22.0,-100.00,NNW,337,2.0,7.0,62,0.00,,,0.00,2.000000,,2013-04-13 13:45:00,
2013-04-13 08:23:00,37.0,21.0,-100.00,NE,39,6.0,10.0,52,0.00,,,0.00,103.000000,,2013-04-13 14:23:00,
2013-04-13 08:35:00,37.0,21.0,-100.00,NE,39,6.0,10.0,52,0.00,,,0.00,103.000000,,2013-04-13 14:35:00,
2013-04-13 08:44:00,37.0,21.0,-100.00,NE,39,6.0,10.0,52,0.00,,,0.00,103.000000,,2013-04-13 14:44:00,
2013-04-13 08:51:00,39.0,22.0,-100.00,NE,46,5.0,9.0,51,0.00,,,0.00,205.000000,,2013-04-13 14:51:00,
2013-04-13 09:26:00,39.0,22.0,-100.00,NE,46,5.0,9.0,51,0.00,,,0.00,205.000000,,2013-04-13 15:26:00,
2013-04-13 09:43:00,39.0,22.0,-100.00,NE,46,5.0,9.0,51,0.00,,,0.00,205.000000,,2013-04-13 15:43:00,
2013-04-13 09:51:00,44.0,23.0,-100.00,ESE,122,3.0,8.0,44,0.00,,,0.00,425.000000,,2013-04-13 15:51:00,
2013-04-13 10:24:00,44.0,23.0,-100.00,ESE,122,3.0,8.0,44,0.00,,,0.00,425.000000,,2013-04-13 16:24:00,
2013-04-13 10:34:00,44.0,23.0,-100.00,ESE,122,3.0,8.0,44,0.00,,,0.00,425.000000,,2013-04-13 16:34:00,
2013-04-13 10:44:00,44.0,23.0,-100.00,ESE,122,3.0,8.0,44,0.00,,,0.00,425.000000,,2013-04-13 16:44:00,
2013-04-13 11:19:00,47.0,24.0,-100.00,SSE,148,1.0,6.0,40,0.00,,,0.00,513.000000,,2013-04-13 17:19:00,
2013-04-13 11:35:00,47.0,24.0,-100.00,SSE,148,1.0,6.0,40,0.00,,,0.00,513.000000,,2013-04-13 17:35:00,
2013-04-13 11:43:00,47.0,24.0,-100.00,SSE,148,1.0,6.0,40,0.00,,,0.00,513.000000,,2013-04-13 17:43:00,
2013-04-13 11:51:00,49.0,25.0,-100.00,ENE,58,2.0,5.0,39,0.00,,,0.00,423.000000,,2013-04-13 17:51:00,
2013-04-13 12:24:00,49.0,25.0,-100.00,ENE,58,2.0,5.0,39,0.00,,,0.00,423.000000,,2013-04-13 18:24:00,
2013-04-13 12:32:00,49.0,25.0,-100.00,ENE,58,2.0,5.0,39,0.00,,,0.00,423.000000,,2013-04-13 18:32:00,
2013-04-13 12:42:00,49.0,25.0,-100.00,ENE,58,2.0,5.0,39,0.00,,,0.00,423.000000,,2013-04-13 18:42:00,
2013-04-13 12:51:00,53.0,25.0,-100.00,ENE,59,3.0,7.0,34,0.00,,,0.00,537.000000,,2013-04-13 18:51:00,
2013-04-13 13:22:00,53.0,25.0,-100.00,ENE,59,3.0,7.0,34,0.00,,,0.00,537.000000,,2013-04-13 19:22:00,
2013-04-13 13:32:00,53.0,25.0,-100.00,ENE,59,3.0,7.0,34,0.00,,,0.00,537.000000,,2013-04-13 19:32:00,
2013-04-13 13:42:00,53.0,25.0,-100.00,ENE,59,3.0,7.0,34,0.00,,,0.00,537.000000,,2013-04-13 19:42:00,
2013-04-13 13:51:00,57.0,23.0,-100.00,East,89,6.0,18.0,27,0.00,,,0.00,690.000000,,2013-04-13 19:51:00,
2013-04-13 14:22:00,57.0,23.0,-100.00,East,89,6.0,18.0,27,0.00,,,0.00,690.000000,,2013-04-13 20:22:00,
2013-04-13 14:32:00,57.0,23.0,-100.00,East,89,6.0,18.0,27,0.00,,,0.00,690.000000,,2013-04-13 20:32:00,
2013-04-13 14:42:00,57.0,23.0,-100.00,East,89,6.0,18.0,27,0.00,,,0.00,690.000000,,2013-04-13 20:42:00,
2013-04-13 14:51:00,60.0,19.0,-100.00,WSW,244,21.0,41.0,20,0.00,,,0.00,476.000000,,2013-04-13 20:51:00,
2013-04-13 15:12:00,60.0,19.0,-100.00,WSW,244,21.0,41.0,20,0.00,,,0.00,476.000000,,2013-04-13 21:12:00,
2013-04-13 15:22:00,60.0,19.0,-100.00,WSW,244,21.0,41.0,20,0.00,,,0.00,476.000000,,2013-04-13 21:22:00,
2013-04-13 15:32:00,60.0,19.0,-100.00,WSW,244,21.0,41.0,20,0.00,,,0.00,476.000000,,2013-04-13 21:32:00,
2013-04-13 15:43:00,60.0,19.0,-100.00,WSW,244,21.0,41.0,20,0.00,,,0.00,476.000000,,2013-04-13 21:43:00,
2013-04-13 15:51:00,54.0,25.0,-100.00,SSW,193,23.0,39.0,32,0.00,,,0.00,436.000000,,2013-04-13 21:51:00,
2013-04-13 16:22:00,54.0,25.0,-100.00,SSW,193,23.0,39.0,32,0.00,,,0.00,436.000000,,2013-04-13 22:22:00,
2013-04-13 16:33:00,54.0,25.0,-100.00,SSW,193,23.0,39.0,32,0.00,,,0.00,436.000000,,2013-04-13 22:33:00,
2013-04-13 16:42:00,54.0,25.0,-100.00,SSW,193,23.0,39.0,32,0.00,,,0.00,436.000000,,2013-04-13 22:42:00,
2013-04-13 16:51:00,61.0,21.0,-100.00,WSW,238,14.0,38.0,21,0.00,,,0.00,314.000000,,2013-04-13 22:51:00,
2013-04-13 17:12:00,61.0,21.0,-100.00,WSW,238,14.0,38.0,21,0.00,,,0.00,314.000000,,2013-04-13 23:12:00,
2013-04-13 17:22:00,61.0,21.0,-100.00,WSW,238,14.0,38.0,21,0.00,,,0.00,314.000000,,2013-04-13 23:22:00,
2013-04-13 17:32:00,61.0,21.0,-100.00,WSW,238,14.0,38.0,21,0.00,,,0.00,314.000000,,2013-04-13 23:32:00,
2013-04-13 17:41:00,61.0,21.0,-100.00,WSW,238,14.0,38.0,21,0.00,,,0.00,314.000000,,2013-04-13 23:41:00,
2013-04-13 17:51:00,60.0,22.0,-100.00,SW,224,16.0,30.0,23,0.00,,,-99.99,256.000000,,2013-04-13 23:51:00,
2013-04-13 18:12:00,60.0,22.0,-100.00,SW,224,16.0,30.0,23,0.00,,,-99.99,256.000000,,2013-04-14 00:12:00,
2013-04-13 18:22:00,60.0,22.0,-100.00,SW,224,16.0,30.0,23,0.00,,,-99.99,256.000000,,2013-04-14 00:22:00,
2013-04-13 18:32:00,60.0,22.0,-100.00,SW,224,16.0,30.0,23,0.00,,,-99.99,256.000000,,2013-04-14 00:32:00,
2013-04-13 18:42:00,60.0,22.0,-100.00,SW,224,16.0,30.0,23,0.00,,,-99.99,256.000000,,2013-04-14 00:42:00,
2013-04-13 18:51:00,59.0,23.0,-100.00,SSW,204,11.0,38.0,25,0.00,,,0.00,77.000000,,2013-04-14 00:51:00,
2013-04-13 19:12:00,59.0,23.0,-100.00,SSW,204,11.0,38.0,25,0.00,,,0.00,77.000000,,2013-04-14 01:12:00,
2013-04-13 19:22:00,59.0,23.0,-100.00,SSW,204,11.0,38.0,25,0.00,,,0.00,77.000000,,2013-04-14 01:22:00,
2013-04-13 19:32:00,59.0,23.0,-100.00,SSW,204,11.0,38.0,25,0.00,,,0.00,77.000000,,2013-04-14 01:32:00,
2013-04-13 19:42:00,59.0,23.0,-100.00,SSW,204,11.0,38.0,25,0.00,,,0.00,77.000000,,2013-04-14 01:42:00,
2013-04-13 19:51:00,58.0,24.0,-100.00,WSW,255,18.0,32.0,27,0.00,,,0.00,15.000000,,2013-04-14 01:51:00,
2013-04-13 20:22:00,58.0,24.0,-100.00,WSW,255,18.0,32.0,27,0.00,,,0.00,15.000000,,2013-04-14 02:22:00,
2013-04-13 20:32:00,58.0,24.0,-100.00,WSW,255,18.0,32.0,27,0.00,,,0.00,15.000000,,2013-04-14 02:32:00,
2013-04-13 20:42:00,58.0,24.0,-100.00,WSW,255,18.0,32.0,27,0.00,,,0.00,15.000000,,2013-04-14 02:42:00,
2013-04-13 20:51:00,49.0,37.0,-100.00,NW,312,9.0,36.0,64,0.00,,,0.00,0.000000,,2013-04-14 02:51:00,
2013-04-13 21:12:00,49.0,37.0,-100.00,NW,312,9.0,36.0,64,0.00,,,0.00,0.000000,,2013-04-14 03:12:00,
2013-04-13 21:22:00,49.0,37.0,-100.00,NW,312,9.0,36.0,64,0.00,,,0.00,0.000000,,2013-04-14 03:22:00,
2013-04-13 21:33:00,49.0,37.0,-100.00,NW,312,9.0,36.0,64,0.00,,,0.00,0.000000,,2013-04-14 03:33:00,
2013-04-13 21:42:00,49.0,37.0,-100.00,NW,312,9.0,36.0,64,0.00,,,0.00,0.000000,,2013-04-14 03:42:00,
2013-04-13 21:51:00,41.0,37.0,-100.00,WSW,246,2.0,20.0,85,0.02,,,0.02,0.000000,,2013-04-14 03:51:00,
2013-04-13 22:22:00,41.0,37.0,-100.00,WSW,246,2.0,20.0,85,0.02,,,0.02,0.000000,,2013-04-14 04:22:00,
2013-04-13 22:32:00,41.0,37.0,-100.00,WSW,246,2.0,20.0,85,0.02,,,0.02,0.000000,,2013-04-14 04:32:00,
2013-04-13 22:42:00,41.0,37.0,-100.00,WSW,246,2.0,20.0,85,0.02,,,0.02,0.000000,,2013-04-14 04:42:00,
2013-04-13 22:51:00,40.0,38.0,-100.00,WNW,291,2.0,17.0,93,0.13,,,0.15,0.000000,,2013-04-14 04:51:00,
2013-04-13 23:12:00,40.0,38.0,-100.00,WNW,291,2.0,17.0,93,0.13,,,0.15,0.000000,,2013-04-14 05:12:00,
2013-04-13 23:22:00,40.0,38.0,-100.00,WNW,291,2.0,17.0,93,0.13,,,0.15,0.000000,,2013-04-14 05:22:00,
2013-04-13 23:32:00,40.0,38.0,-100.00,WNW,291,2.0,17.0,93,0.13,,,0.15,0.000000,,2013-04-14 05:32:00,
2013-04-13 23:42:00,40.0,38.0,-100.00,WNW,291,2.0,17.0,93,0.13,,,0.15,0.000000,,2013-04-14 05:42:00,
2013-04-13 23:51:00,39.0,37.0,-100.00,North,355,6.0,12.0,94,0.10,,,0.25,0.000000,,2013-04-14 05:51:00,